Terminal Aerodrome Forecast
Issued by NWS

Home | Current Version | Previous Version | Text Only | Print | Product List | Glossary On
Versions: 1 2 3 4 5 6 7 8 9 10 11 12 13 14 15 16 17 18 19
000
FTUS42 KTAE 212000 AAA
TAFDHN
TAF AMD
KDHN 212037Z 2121/2218 30004KT P6SM SCT050
      TEMPO 2121/2124 VRB10G20KT 5SM TSRA BKN030CB=

USA.gov is the U.S. government's official web portal to all federal, state and local government web resources and services.